Time;durP1;ratioP1;P1;durP2;ratioP2;P2;SDS_P1;SDS_P2;PMS_P1;PMS_P2;Temp;Humidity;BMP_temperature;BMP_pressure;BME280_temperature;BME280_humidity;BME280_pressure;Samples;Min_cycle;Max_cycle;Signal;HPM_P1;HPM_P2
2023/09/23 00:00:13;;;;;;;1.30;1.20;;;13.30;99.90;;;;;;5074478;28;20479;-50
2023/09/23 00:02:46;;;;;;;5.88;1.40;;;13.30;99.90;;;;;;5074112;28;20039;-49
2023/09/23 00:05:13;;;;;;;4.35;1.60;;;13.30;99.90;;;;;;5074118;28;20111;-50
2023/09/23 00:07:39;;;;;;;4.93;1.58;;;13.30;99.90;;;;;;5074142;28;20107;-50
2023/09/23 00:10:09;;;;;;;1.88;1.75;;;13.30;99.90;;;;;;5074075;28;20025;-51
2023/09/23 00:12:40;;;;;;;2.33;2.08;;;13.30;99.90;;;;;;5074020;28;20033;-48
2023/09/23 00:15:07;;;;;;;4.45;2.30;;;13.40;99.90;;;;;;5073918;28;20021;-51
2023/09/23 00:17:36;;;;;;;2.47;2.17;;;13.30;99.90;;;;;;5073811;28;20032;-49
2023/09/23 00:20:14;;;;;;;4.50;2.45;;;13.20;99.90;;;;;;5073793;28;20029;-47
2023/09/23 00:22:40;;;;;;;3.42;2.47;;;13.20;99.90;;;;;;5074066;28;20058;-42
2023/09/23 00:25:06;;;;;;;4.55;2.05;;;13.10;99.90;;;;;;5073946;28;20363;-43
2023/09/23 00:27:34;;;;;;;3.00;2.30;;;13.10;99.90;;;;;;5073656;28;20107;-48
2023/09/23 00:30:00;;;;;;;2.35;1.75;;;13.00;99.90;;;;;;5074002;28;20040;-49
2023/09/23 00:32:25;;;;;;;2.10;1.75;;;12.90;99.90;;;;;;5073653;28;20028;-48
2023/09/23 00:34:51;;;;;;;3.58;1.88;;;12.90;99.90;;;;;;5073880;28;20024;-44
2023/09/23 00:37:17;;;;;;;1.58;1.48;;;12.90;99.90;;;;;;5073485;28;20052;-46
2023/09/23 00:39:43;;;;;;;3.80;1.83;;;12.90;99.90;;;;;;5073821;28;20412;-47
2023/09/23 00:42:12;;;;;;;4.50;1.73;;;12.90;99.90;;;;;;5073293;28;20016;-46
2023/09/23 00:44:41;;;;;;;2.35;1.52;;;12.80;99.90;;;;;;5073661;28;20020;-48
2023/09/23 00:47:09;;;;;;;1.90;1.63;;;12.80;99.90;;;;;;5073380;28;20029;-48
2023/09/23 00:49:39;;;;;;;1.83;1.67;;;12.80;99.90;;;;;;5073647;28;20074;-52
2023/09/23 00:52:06;;;;;;;2.92;1.67;;;12.80;99.90;;;;;;5073247;28;20031;-49
2023/09/23 00:54:41;;;;;;;2.85;1.77;;;12.80;99.90;;;;;;5073228;28;20032;-48
2023/09/23 00:57:08;;;;;;;1.67;1.55;;;12.80;99.90;;;;;;5072973;28;20132;-49
2023/09/23 00:59:37;;;;;;;4.60;1.70;;;12.80;99.90;;;;;;5071975;28;20032;-49
2023/09/23 01:02:04;;;;;;;3.25;2.33;;;12.80;99.90;;;;;;5073336;28;20028;-52
2023/09/23 01:04:30;;;;;;;3.03;2.63;;;12.80;99.90;;;;;;5072180;28;20072;-48
2023/09/23 01:06:56;;;;;;;6.15;3.30;;;12.80;99.90;;;;;;5071601;28;20511;-49
2023/09/23 01:09:23;;;;;;;7.45;4.40;;;12.80;99.90;;;;;;5073275;28;20038;-52
2023/09/23 01:11:51;;;;;;;9.48;4.90;;;12.80;99.90;;;;;;5071746;28;20123;-49
2023/09/23 01:14:21;;;;;;;9.60;5.20;;;12.80;99.90;;;;;;5072891;28;20039;-51
2023/09/23 01:16:52;;;;;;;9.18;5.75;;;12.80;99.90;;;;;;5073249;28;20374;-51
2023/09/23 01:19:25;;;;;;;10.43;6.05;;;12.80;99.90;;;;;;5073276;28;20477;-50
2023/09/23 01:21:51;;;;;;;10.15;6.57;;;12.90;99.90;;;;;;5072959;28;20036;-50
2023/09/23 01:24:17;;;;;;;13.02;7.65;;;12.90;99.90;;;;;;5073058;28;20396;-50
2023/09/23 01:26:50;;;;;;;15.80;7.75;;;12.90;99.90;;;;;;5073160;28;20032;-51
2023/09/23 01:29:22;;;;;;;14.77;8.82;;;12.90;99.90;;;;;;5072965;28;20388;-48
2023/09/23 01:32:30;;;;;;;13.43;8.02;;;12.90;99.90;;;;;;5073183;28;20028;-53
2023/09/23 01:34:56;;;;;;;13.80;8.98;;;12.90;99.90;;;;;;5065148;28;20040;-53
2023/09/23 01:37:23;;;;;;;15.43;7.90;;;12.90;99.90;;;;;;5072766;28;20384;-52
2023/09/23 01:39:49;;;;;;;15.55;9.73;;;12.90;99.90;;;;;;5072792;28;20108;-53
2023/09/23 01:42:14;;;;;;;18.98;9.43;;;12.90;99.90;;;;;;5072672;28;20113;-53
2023/09/23 01:44:41;;;;;;;15.63;9.68;;;12.90;99.90;;;;;;5072641;28;20052;-53
2023/09/23 01:47:06;;;;;;;13.85;8.88;;;13.00;99.90;;;;;;5072666;28;20040;-53
2023/09/23 01:49:32;;;;;;;16.75;9.18;;;12.90;99.90;;;;;;5072648;28;20028;-51
2023/09/23 01:51:57;;;;;;;14.38;8.95;;;12.90;99.90;;;;;;5072705;28;20020;-53
2023/09/23 01:54:23;;;;;;;14.05;8.68;;;12.90;99.90;;;;;;5072617;28;20477;-52
2023/09/23 01:56:49;;;;;;;11.23;8.50;;;12.90;99.90;;;;;;5072334;28;20028;-48
2023/09/23 01:59:14;;;;;;;16.55;9.75;;;12.90;99.90;;;;;;5072569;28;20051;-52
2023/09/23 02:01:41;;;;;;;11.90;8.55;;;12.90;99.90;;;;;;5071468;28;20081;-53
2023/09/23 02:04:10;;;;;;;16.23;8.68;;;12.90;99.90;;;;;;5072443;28;20032;-53
2023/09/23 02:06:40;;;;;;;15.10;8.75;;;12.90;99.90;;;;;;5072483;28;20021;-49
2023/09/23 02:09:09;;;;;;;16.42;8.95;;;12.90;99.90;;;;;;5072734;28;20452;-51
2023/09/23 02:11:35;;;;;;;15.38;8.25;;;12.90;99.90;;;;;;5072373;28;20031;-35
2023/09/23 02:14:01;;;;;;;19.40;9.75;;;12.90;99.90;;;;;;5072389;28;20116;-35
2023/09/23 02:16:27;;;;;;;16.60;8.68;;;12.90;99.90;;;;;;5072173;28;20086;-36
2023/09/23 02:18:52;;;;;;;15.23;9.00;;;12.90;99.90;;;;;;5075272;28;20044;-35
2023/09/23 02:21:19;;;;;;;18.23;8.80;;;13.00;99.90;;;;;;5076145;28;20025;-35
2023/09/23 02:23:45;;;;;;;13.77;8.38;;;12.90;99.90;;;;;;5076039;28;20485;-35
2023/09/23 02:26:11;;;;;;;15.25;8.90;;;13.00;99.90;;;;;;5076066;28;20511;-35
2023/09/23 02:28:38;;;;;;;15.85;8.38;;;12.90;99.90;;;;;;5076292;28;20507;-35
2023/09/23 02:31:04;;;;;;;18.02;8.88;;;12.90;99.90;;;;;;5076054;28;20489;-34
2023/09/23 02:33:30;;;;;;;17.98;8.45;;;12.90;99.90;;;;;;5075999;28;20119;-36
2023/09/23 02:35:57;;;;;;;16.58;8.82;;;13.00;99.90;;;;;;5075919;28;20052;-34
2023/09/23 02:38:24;;;;;;;17.85;8.80;;;13.00;99.90;;;;;;5076140;28;20028;-35
2023/09/23 02:40:50;;;;;;;14.10;8.35;;;13.00;99.90;;;;;;5075725;28;20048;-53
2023/09/23 02:43:19;;;;;;;16.27;9.05;;;13.00;99.90;;;;;;5075783;28;20063;-52
2023/09/23 02:45:49;;;;;;;14.65;9.10;;;13.00;99.90;;;;;;5075751;28;20104;-50
2023/09/23 02:48:14;;;;;;;15.05;8.48;;;13.00;99.90;;;;;;5075665;28;20078;-50
2023/09/23 02:50:40;;;;;;;14.07;9.30;;;13.00;99.90;;;;;;5075706;28;20388;-50
2023/09/23 02:53:07;;;;;;;13.15;8.35;;;12.90;99.90;;;;;;5075655;28;20388;-47
2023/09/23 02:55:33;;;;;;;13.55;8.55;;;12.90;99.90;;;;;;5075817;28;20033;-52
2023/09/23 02:57:58;;;;;;;14.60;8.43;;;12.90;99.90;;;;;;5075384;28;20045;-49
2023/09/23 03:00:29;;;;;;;14.10;8.73;;;12.90;99.90;;;;;;5075793;28;20041;-50
2023/09/23 03:02:58;;;;;;;15.98;8.93;;;12.90;99.90;;;;;;5075444;28;20121;-49
2023/09/23 03:05:31;;;;;;;17.00;9.27;;;12.90;99.90;;;;;;5074119;28;20055;-52
2023/09/23 03:07:58;;;;;;;14.52;8.27;;;12.90;99.90;;;;;;5075363;28;20055;-51
2023/09/23 03:10:34;;;;;;;13.80;8.32;;;12.90;99.90;;;;;;5075600;28;20027;-50
2023/09/23 03:13:05;;;;;;;13.30;8.00;;;12.90;99.90;;;;;;5075342;28;20035;-48
2023/09/23 03:15:44;;;;;;;10.13;7.18;;;12.80;99.90;;;;;;5075452;28;20033;-52
2023/09/23 03:18:10;;;;;;;16.73;8.20;;;12.90;99.90;;;;;;5075303;28;20393;-52
2023/09/23 03:20:38;;;;;;;13.50;6.82;;;12.90;99.90;;;;;;5075426;28;20035;-49
2023/09/23 03:23:10;;;;;;;10.65;6.35;;;12.90;99.90;;;;;;5075014;28;20029;-50
2023/09/23 03:25:46;;;;;;;11.15;5.95;;;12.90;99.90;;;;;;5075017;28;20028;-52
2023/09/23 03:28:16;;;;;;;11.40;6.22;;;13.00;99.90;;;;;;5074629;28;20028;-50
2023/09/23 03:30:44;;;;;;;9.02;6.32;;;13.00;99.90;;;;;;5073710;28;20056;-52
2023/09/23 03:33:11;;;;;;;;;;;13.00;99.90;;;;;;5075329;28;20366;-52
2023/09/23 03:35:37;;;;;;;15.50;6.45;;;13.00;99.90;;;;;;5075168;28;19991;-49
2023/09/23 03:38:03;;;;;;;10.18;6.07;;;13.00;99.90;;;;;;5074792;28;20075;-45
2023/09/23 03:40:31;;;;;;;9.55;6.15;;;13.00;99.90;;;;;;5074734;28;20024;-46
2023/09/23 03:42:58;;;;;;;13.60;6.68;;;12.90;99.90;;;;;;5074986;28;20029;-49
2023/09/23 03:45:24;;;;;;;6.90;5.18;;;12.90;99.90;;;;;;5073793;28;20017;-55
2023/09/23 03:47:49;;;;;;;9.98;5.70;;;12.90;99.90;;;;;;5074646;28;20028;-48
2023/09/23 03:50:16;;;;;;;9.15;5.35;;;12.90;99.90;;;;;;5074823;28;20062;-49
2023/09/23 03:52:42;;;;;;;8.50;6.05;;;12.90;99.90;;;;;;5074761;28;20476;-52
2023/09/23 03:55:11;;;;;;;9.85;6.18;;;12.90;99.90;;;;;;5074691;28;20550;-50
2023/09/23 03:57:38;;;;;;;12.95;5.57;;;12.90;99.90;;;;;;5074220;28;20047;-47
2023/09/23 04:00:15;;;;;;;10.85;5.68;;;12.90;99.90;;;;;;5074327;28;20036;-50
2023/09/23 04:02:41;;;;;;;;;;;12.90;99.90;;;;;;5074697;28;20036;-52
2023/09/23 04:05:07;;;;;;;9.05;5.65;;;12.80;99.90;;;;;;5074332;28;19908;-50
2023/09/23 04:07:33;;;;;;;10.23;6.22;;;12.90;99.90;;;;;;5073259;28;20028;-49
2023/09/23 04:09:58;;;;;;;6.75;5.05;;;12.90;99.90;;;;;;5074145;28;20024;-50
2023/09/23 04:12:24;;;;;;;14.23;5.78;;;12.90;99.90;;;;;;5074128;28;20024;-35
2023/09/23 04:14:50;;;;;;;7.75;5.35;;;12.90;99.90;;;;;;5073955;28;20035;-36
2023/09/23 04:17:15;;;;;;;12.88;6.55;;;12.90;99.90;;;;;;5073956;28;20021;-33
2023/09/23 04:19:41;;;;;;;9.80;5.97;;;12.90;99.90;;;;;;5074487;28;20025;-33
2023/09/23 04:22:07;;;;;;;11.27;5.78;;;12.90;99.90;;;;;;5073904;28;20028;-35
2023/09/23 04:24:51;;;;;;;9.50;4.97;;;12.90;99.90;;;;;;5073692;28;20035;-35
2023/09/23 04:27:17;;;;;;;9.93;5.57;;;12.90;99.90;;;;;;5074103;28;20481;-35
2023/09/23 04:29:43;;;;;;;7.75;5.57;;;12.90;99.90;;;;;;5073764;28;20111;-34
2023/09/23 04:32:11;;;;;;;13.55;5.93;;;13.00;99.90;;;;;;5073705;28;20025;-35
2023/09/23 04:34:36;;;;;;;8.43;5.63;;;13.00;99.90;;;;;;5073664;28;20056;-34
2023/09/23 04:37:04;;;;;;;11.23;5.65;;;13.00;99.90;;;;;;5073601;28;20039;-37
2023/09/23 04:39:31;;;;;;;9.50;5.65;;;13.00;99.90;;;;;;5073397;28;20051;-35
2023/09/23 04:41:57;;;;;;;13.88;5.60;;;13.00;99.90;;;;;;5073017;28;20485;-35
2023/09/23 04:44:24;;;;;;;9.35;5.47;;;13.10;99.90;;;;;;5073368;28;20036;-35
2023/09/23 04:46:50;;;;;;;9.60;5.23;;;13.10;99.90;;;;;;5072219;28;20107;-35
2023/09/23 04:49:16;;;;;;;9.48;5.00;;;13.10;99.90;;;;;;5073391;28;20308;-35
2023/09/23 04:51:41;;;;;;;9.55;4.75;;;13.10;99.90;;;;;;5073612;28;20050;-35
2023/09/23 04:54:07;;;;;;;7.30;4.93;;;13.10;99.90;;;;;;5073557;28;20497;-35
2023/09/23 04:56:32;;;;;;;8.90;5.40;;;13.10;99.90;;;;;;5073278;28;20028;-33
2023/09/23 04:58:58;;;;;;;6.70;4.88;;;13.10;99.90;;;;;;5073081;28;20053;-33
2023/09/23 05:01:24;;;;;;;6.63;4.45;;;13.20;99.90;;;;;;5073485;28;20028;-33
2023/09/23 05:03:52;;;;;;;5.72;4.35;;;13.20;99.90;;;;;;5073072;28;20438;-33
2023/09/23 05:06:18;;;;;;;12.02;4.82;;;13.20;99.90;;;;;;5073424;28;20519;-32
2023/09/23 05:08:43;;;;;;;10.18;5.30;;;13.20;99.90;;;;;;5055185;28;20021;-36
2023/09/23 05:11:11;;;;;;;5.30;3.70;;;13.30;99.90;;;;;;5073121;28;20489;-36
2023/09/23 05:13:37;;;;;;;11.55;5.18;;;13.20;99.90;;;;;;5073023;28;20473;-37
2023/09/23 05:16:03;;;;;;;8.55;4.53;;;13.20;99.90;;;;;;5072946;28;20158;-35
2023/09/23 05:18:29;;;;;;;11.07;5.05;;;13.20;99.90;;;;;;5073011;28;20048;-35
2023/09/23 05:20:55;;;;;;;9.98;5.35;;;13.20;99.90;;;;;;5072859;28;20497;-36
2023/09/23 05:23:23;;;;;;;10.23;4.80;;;13.20;99.90;;;;;;5072686;28;20167;-35
2023/09/23 05:25:49;;;;;;;7.60;4.60;;;13.20;99.90;;;;;;5072709;28;20021;-36
2023/09/23 05:28:14;;;;;;;15.77;5.80;;;13.20;99.90;;;;;;5072820;28;20385;-41
2023/09/23 05:30:40;;;;;;;14.45;4.82;;;13.20;99.90;;;;;;5073091;28;20060;-35
2023/09/23 05:33:06;;;;;;;9.70;5.15;;;13.10;99.90;;;;;;5072823;28;20032;-37
2023/09/23 05:35:32;;;;;;;7.15;4.60;;;13.10;99.90;;;;;;5072782;28;20420;-36
2023/09/23 05:37:57;;;;;;;6.65;5.32;;;13.10;99.90;;;;;;5072797;28;20374;-35
2023/09/23 05:40:26;;;;;;;8.77;5.05;;;13.10;99.90;;;;;;5072997;28;20079;-36
2023/09/23 05:42:53;;;;;;;9.07;4.47;;;13.00;99.90;;;;;;5072653;28;20028;-35
2023/09/23 05:45:23;;;;;;;14.88;5.07;;;13.10;99.90;;;;;;5072727;28;20432;-36
2023/09/23 05:47:48;;;;;;;7.45;4.60;;;13.00;99.90;;;;;;5073023;28;20481;-36
2023/09/23 05:50:15;;;;;;;15.52;5.45;;;13.00;99.90;;;;;;5072610;28;20109;-36
2023/09/23 05:52:41;;;;;;;7.35;4.90;;;13.00;99.90;;;;;;5074185;28;20028;-36
2023/09/23 05:55:08;;;;;;;7.00;4.90;;;13.00;99.90;;;;;;5076778;28;20085;-35
2023/09/23 05:57:40;;;;;;;9.00;4.80;;;13.00;99.90;;;;;;5076545;28;20082;-37
2023/09/23 06:00:11;;;;;;;12.00;5.05;;;13.00;99.90;;;;;;5076729;28;20060;-36
2023/09/23 06:02:38;;;;;;;4.70;4.05;;;13.00;99.90;;;;;;5076522;28;20033;-36
2023/09/23 06:05:04;;;;;;;9.82;4.60;;;13.00;99.90;;;;;;5076606;28;20147;-38
2023/09/23 06:07:31;;;;;;;8.20;4.70;;;13.00;99.90;;;;;;5076753;28;20539;-35
2023/09/23 06:09:58;;;;;;;6.05;4.07;;;13.00;99.90;;;;;;5076435;28;20028;-35
2023/09/23 06:12:29;;;;;;;8.27;3.10;;;13.00;99.90;;;;;;5075276;28;20029;-37
2023/09/23 06:15:01;;;;;;;5.20;3.25;;;13.00;99.90;;;;;;5076560;28;20096;-36
2023/09/23 06:17:27;;;;;;;8.18;4.05;;;13.00;99.90;;;;;;5076359;28;20024;-36
2023/09/23 06:19:55;;;;;;;6.40;4.20;;;13.00;99.90;;;;;;5076230;28;20025;-36
2023/09/23 06:22:21;;;;;;;14.70;4.38;;;13.00;99.90;;;;;;5076093;28;20068;-47
2023/09/23 06:24:52;;;;;;;8.73;3.92;;;13.00;99.90;;;;;;5076102;28;20520;-36
2023/09/23 06:27:18;;;;;;;9.93;3.53;;;13.00;99.90;;;;;;5076153;28;20029;-37
2023/09/23 06:29:44;;;;;;;4.05;2.83;;;13.00;99.90;;;;;;5076069;28;20511;-36
2023/09/23 06:32:10;;;;;;;5.38;3.00;;;13.00;99.90;;;;;;5076004;28;20108;-36
2023/09/23 06:34:36;;;;;;;4.70;3.45;;;13.10;99.90;;;;;;5075982;28;20111;-36
2023/09/23 06:37:02;;;;;;;6.40;3.20;;;13.20;99.90;;;;;;5074609;28;20565;-36
2023/09/23 06:39:28;;;;;;;6.82;3.45;;;13.20;99.90;;;;;;5075879;28;20036;-36
2023/09/23 06:41:54;;;;;;;4.97;3.10;;;13.20;99.90;;;;;;5075836;28;20539;-34
2023/09/23 06:44:20;;;;;;;5.63;3.40;;;13.20;99.90;;;;;;5075703;28;20436;-35
2023/09/23 06:46:45;;;;;;;4.05;3.00;;;13.20;99.90;;;;;;5075826;28;20028;-36
2023/09/23 06:49:11;;;;;;;6.90;3.05;;;13.30;99.90;;;;;;5074460;28;20029;-35
2023/09/23 06:51:37;;;;;;;7.57;3.53;;;13.30;99.90;;;;;;5075694;28;20028;-36
2023/09/23 06:54:03;;;;;;;4.20;2.88;;;13.40;99.90;;;;;;5075670;28;20397;-36
2023/09/23 06:56:28;;;;;;;10.90;3.08;;;13.40;99.90;;;;;;5075574;28;20484;-35
2023/09/23 06:58:54;;;;;;;5.97;2.55;;;13.40;99.90;;;;;;5075304;28;20044;-35
2023/09/23 07:01:21;;;;;;;13.55;3.28;;;13.50;99.90;;;;;;5075527;28;20036;-35
2023/09/23 07:03:47;;;;;;;5.37;2.90;;;13.50;99.90;;;;;;5074792;28;20035;-36
2023/09/23 07:06:13;;;;;;;4.65;2.85;;;13.60;99.90;;;;;;5075365;28;20273;-36
2023/09/23 07:08:38;;;;;;;7.07;3.08;;;13.60;99.90;;;;;;5075408;28;20544;-34
2023/09/23 07:11:10;;;;;;;4.95;2.80;;;13.70;99.90;;;;;;5075618;28;20048;-35
2023/09/23 07:13:36;;;;;;;3.05;2.50;;;13.80;99.90;;;;;;5075412;28;20115;-35
2023/09/23 07:16:01;;;;;;;3.25;2.50;;;13.90;99.90;;;;;;5075053;28;20060;-35
2023/09/23 07:18:28;;;;;;;6.05;2.92;;;14.00;99.90;;;;;;5075095;28;20029;-35
2023/09/23 07:20:56;;;;;;;5.80;2.60;;;14.00;99.90;;;;;;5075173;28;20033;-36
2023/09/23 07:23:22;;;;;;;5.68;3.03;;;14.10;99.90;;;;;;5075283;28;20078;-35
2023/09/23 07:25:48;;;;;;;7.13;2.55;;;14.10;99.90;;;;;;5075007;28;20055;-35
2023/09/23 07:28:14;;;;;;;5.57;2.78;;;14.00;99.90;;;;;;5074985;28;20051;-36
2023/09/23 07:30:39;;;;;;;6.28;2.53;;;14.00;99.90;;;;;;5075190;28;20017;-35
2023/09/23 07:33:05;;;;;;;4.47;2.58;;;14.00;99.90;;;;;;5074776;28;20039;-35
2023/09/23 07:35:32;;;;;;;5.47;2.63;;;14.00;99.90;;;;;;5074787;28;20094;-36
2023/09/23 07:38:01;;;;;;;8.80;2.63;;;14.00;99.90;;;;;;5075078;28;20024;-36
2023/09/23 07:40:28;;;;;;;4.57;2.75;;;14.10;99.90;;;;;;5073031;28;20024;-37
2023/09/23 07:42:53;;;;;;;5.53;2.35;;;14.20;99.90;;;;;;5074586;28;20020;-36
2023/09/23 07:45:19;;;;;;;4.63;2.47;;;14.30;99.90;;;;;;5074245;28;20034;-35
2023/09/23 07:47:45;;;;;;;9.07;2.58;;;14.40;99.90;;;;;;5074324;28;20037;-36
2023/09/23 07:50:11;;;;;;;2.30;1.75;;;14.60;99.90;;;;;;5074239;28;20449;-37
2023/09/23 07:52:38;;;;;;;8.23;2.53;;;14.60;99.90;;;;;;5074117;28;20027;-36
2023/09/23 07:55:04;;;;;;;7.10;3.50;;;14.60;99.90;;;;;;5074121;28;20048;-37
2023/09/23 07:57:33;;;;;;;15.45;2.60;;;14.80;99.90;;;;;;5074044;28;20447;-37
2023/09/23 07:59:59;;;;;;;3.50;2.05;;;14.90;99.90;;;;;;5074033;28;20477;-34
2023/09/23 08:02:25;;;;;;;3.95;1.77;;;15.00;99.90;;;;;;5074142;28;20028;-36
2023/09/23 08:04:51;;;;;;;4.95;2.50;;;15.00;99.90;;;;;;5074273;28;20370;-35
2023/09/23 08:07:16;;;;;;;3.03;2.72;;;14.90;99.90;;;;;;5074207;28;20439;-36
2023/09/23 08:09:42;;;;;;;5.50;2.33;;;15.00;99.90;;;;;;5056147;28;20027;-36
2023/09/23 08:12:09;;;;;;;3.55;2.10;;;15.00;99.90;;;;;;5074079;28;20021;-36
2023/09/23 08:14:35;;;;;;;3.75;2.30;;;15.00;99.90;;;;;;5073671;28;20020;-36
2023/09/23 08:17:01;;;;;;;2.65;2.15;;;15.10;99.90;;;;;;5073460;28;20035;-36
2023/09/23 08:19:26;;;;;;;6.95;2.33;;;15.20;99.90;;;;;;5072682;28;20086;-37
2023/09/23 08:21:52;;;;;;;5.30;2.22;;;15.20;99.90;;;;;;5073807;28;20025;-34
2023/09/23 08:24:18;;;;;;;5.32;2.03;;;15.30;99.90;;;;;;5073750;28;20028;-36
2023/09/23 08:26:44;;;;;;;4.68;2.00;;;15.40;99.90;;;;;;5074036;28;20028;-36
2023/09/23 08:29:10;;;;;;;3.10;1.80;;;15.40;99.90;;;;;;5073738;28;20028;-38
2023/09/23 08:31:36;;;;;;;4.07;2.63;;;15.50;99.90;;;;;;5073698;28;20481;-35
2023/09/23 08:34:04;;;;;;;3.13;1.88;;;15.40;99.90;;;;;;5074214;28;20508;-35
2023/09/23 08:36:29;;;;;;;9.90;2.78;;;15.40;99.90;;;;;;5073951;28;20545;-36
2023/09/23 08:38:55;;;;;;;9.02;2.30;;;15.40;99.90;;;;;;5073760;28;20032;-35
2023/09/23 08:41:22;;;;;;;5.40;2.22;;;15.40;99.90;;;;;;5073493;28;20037;-34
2023/09/23 08:43:51;;;;;;;3.72;2.10;;;15.40;99.90;;;;;;5073664;28;20070;-36
2023/09/23 08:46:21;;;;;;;6.43;1.92;;;15.30;99.90;;;;;;5073668;28;20415;-36
2023/09/23 08:48:47;;;;;;;10.07;2.67;;;15.30;99.90;;;;;;5073414;28;20027;-37
2023/09/23 08:51:14;;;;;;;5.03;1.90;;;15.30;99.90;;;;;;5072071;28;20103;-36
2023/09/23 08:53:41;;;;;;;3.72;2.10;;;15.40;99.90;;;;;;5073566;28;20422;-36
2023/09/23 08:56:07;;;;;;;9.27;2.50;;;15.40;99.90;;;;;;5073242;28;20091;-37
2023/09/23 08:58:33;;;;;;;5.88;1.85;;;15.50;99.90;;;;;;5071675;28;20052;-38
2023/09/23 09:00:59;;;;;;;6.28;1.73;;;15.50;99.90;;;;;;5073416;28;20025;-37
2023/09/23 09:03:25;;;;;;;4.25;2.35;;;15.70;99.90;;;;;;5073129;28;20393;-46
2023/09/23 09:05:50;;;;;;;5.80;2.10;;;15.90;99.90;;;;;;5073035;28;20029;-36
2023/09/23 09:08:18;;;;;;;7.63;2.47;;;16.10;99.90;;;;;;5073329;28;20032;-35
2023/09/23 09:10:44;;;;;;;6.13;2.42;;;16.10;99.90;;;;;;5071732;28;20029;-35
2023/09/23 09:13:09;;;;;;;11.35;2.35;;;16.10;99.90;;;;;;5073188;28;20045;-38
2023/09/23 09:15:36;;;;;;;4.40;2.22;;;16.00;99.90;;;;;;5072856;28;20036;-37
2023/09/23 09:18:02;;;;;;;4.38;2.20;;;15.90;99.90;;;;;;5073041;28;20120;-37
2023/09/23 09:20:31;;;;;;;4.65;2.55;;;15.90;99.90;;;;;;5072952;28;20481;-37
2023/09/23 09:22:58;;;;;;;12.38;3.08;;;15.90;99.90;;;;;;5072883;28;20507;-40
2023/09/23 09:25:24;;;;;;;7.78;2.55;;;15.80;99.90;;;;;;5072689;28;20028;-38
2023/09/23 09:27:53;;;;;;;5.65;2.33;;;15.80;99.90;;;;;;5071129;28;20029;-36
2023/09/23 09:30:19;;;;;;;6.78;2.25;;;15.70;99.90;;;;;;5072780;28;20023;-36
2023/09/23 09:32:46;;;;;;;7.05;2.45;;;15.70;99.90;;;;;;5072779;28;20025;-35
2023/09/23 09:35:20;;;;;;;7.63;2.47;;;15.60;99.90;;;;;;5073025;28;20047;-35
2023/09/23 09:37:48;;;;;;;6.25;2.35;;;15.60;99.90;;;;;;5073115;28;20100;-35
2023/09/23 09:40:21;;;;;;;2.78;2.08;;;15.50;99.90;;;;;;5072974;28;20028;-35
2023/09/23 09:42:54;;;;;;;3.05;1.92;;;15.50;99.90;;;;;;5072647;28;20136;-34
2023/09/23 09:45:21;;;;;;;4.22;2.28;;;15.50;99.90;;;;;;5071624;28;20048;-33
2023/09/23 09:47:53;;;;;;;5.43;2.22;;;15.50;99.90;;;;;;5072662;28;20108;-34
2023/09/23 09:50:19;;;;;;;3.55;1.80;;;15.50;99.90;;;;;;5072954;28;20031;-34
2023/09/23 09:52:45;;;;;;;3.15;1.73;;;15.40;99.90;;;;;;5072568;28;20031;-34
2023/09/23 09:55:15;;;;;;;5.40;1.90;;;15.40;99.90;;;;;;5072532;28;20518;-34
2023/09/23 09:57:41;;;;;;;5.55;2.38;;;15.30;99.90;;;;;;5072391;28;20106;-35
2023/09/23 10:00:16;;;;;;;5.43;2.10;;;15.20;99.90;;;;;;5072527;28;20050;-35
2023/09/23 10:02:44;;;;;;;8.50;1.85;;;15.10;99.90;;;;;;5072738;28;20029;-35
2023/09/23 10:05:17;;;;;;;4.03;1.95;;;15.00;99.90;;;;;;5072419;28;20028;-35
2023/09/23 10:07:54;;;;;;;7.95;2.10;;;15.00;99.90;;;;;;5071186;28;20029;-37
2023/09/23 10:10:31;;;;;;;3.17;1.40;;;14.80;99.90;;;;;;5072430;28;20551;-37
2023/09/23 10:13:06;;;;;;;3.92;1.65;;;14.70;99.90;;;;;;5072681;28;20293;-35
2023/09/23 10:15:36;;;;;;;6.90;1.70;;;14.70;99.90;;;;;;5072267;28;20031;-36
2023/09/23 10:18:09;;;;;;;1.90;1.05;;;14.80;99.90;;;;;;5072356;28;20107;-38
2023/09/23 10:20:38;;;;;;;4.20;1.50;;;14.90;99.90;;;;;;5072380;28;20025;-35
2023/09/23 10:23:06;;;;;;;2.47;1.50;;;14.90;99.90;;;;;;5072084;28;20457;-38
2023/09/23 10:25:39;;;;;;;5.50;1.45;;;14.90;99.90;;;;;;5072212;28;20099;-36
2023/09/23 10:28:06;;;;;;;3.58;1.88;;;15.10;99.90;;;;;;5072587;28;20437;-37
2023/09/23 10:30:33;;;;;;;6.63;2.23;;;15.20;99.90;;;;;;5072558;28;20020;-37
2023/09/23 10:32:59;;;;;;;1.20;0.95;;;15.30;99.90;;;;;;5071014;28;20390;-37
2023/09/23 10:35:26;;;;;;;2.35;1.50;;;15.40;99.90;;;;;;5072233;28;20083;-36
2023/09/23 10:37:52;;;;;;;3.20;1.80;;;15.40;99.90;;;;;;5072489;28;20112;-36
2023/09/23 10:40:20;;;;;;;5.47;1.88;;;15.40;99.90;;;;;;5075580;28;20338;-36
2023/09/23 10:42:46;;;;;;;4.90;2.30;;;15.50;99.90;;;;;;5074421;28;20034;-37
2023/09/23 10:45:13;;;;;;;4.75;1.73;;;15.50;99.90;;;;;;5075742;28;20025;-35
2023/09/23 10:47:40;;;;;;;4.05;1.58;;;15.60;99.90;;;;;;5075730;28;20029;-36
2023/09/23 10:50:07;;;;;;;2.97;1.00;;;15.70;99.90;;;;;;5075704;28;20081;-36
2023/09/23 10:52:33;;;;;;;1.83;0.95;;;15.80;99.90;;;;;;5075621;28;20032;-36
2023/09/23 10:54:59;;;;;;;1.05;0.93;;;15.90;99.90;;;;;;5075497;28;20502;-36
2023/09/23 10:57:25;;;;;;;2.17;1.10;;;16.00;99.90;;;;;;5075288;28;20123;-38
2023/09/23 10:59:52;;;;;;;1.40;0.90;;;16.20;99.90;;;;;;5075523;28;20062;-35
2023/09/23 11:02:24;;;;;;;1.33;0.93;;;16.20;99.90;;;;;;5075790;28;20035;-38
2023/09/23 11:04:53;;;;;;;2.28;1.25;;;16.30;99.90;;;;;;5075618;28;20513;-49
2023/09/23 11:07:20;;;;;;;2.63;0.98;;;16.30;99.90;;;;;;5074185;28;20016;-50
2023/09/23 11:09:46;;;;;;;1.90;0.93;;;16.30;99.90;;;;;;5075356;28;20102;-53
2023/09/23 11:12:13;;;;;;;1.25;1.15;;;16.50;99.90;;;;;;5075528;28;20157;-51
2023/09/23 11:14:43;;;;;;;9.05;1.55;;;16.60;99.90;;;;;;5075126;28;20024;-53
2023/09/23 11:17:24;;;;;;;1.17;0.73;;;16.80;99.90;;;;;;5075453;28;20024;-52
2023/09/23 11:19:58;;;;;;;3.13;0.60;;;16.90;99.90;;;;;;5075205;28;20396;-51
2023/09/23 11:22:30;;;;;;;3.40;1.40;;;17.10;99.90;;;;;;5075162;28;20032;-37
2023/09/23 11:24:56;;;;;;;3.85;0.80;;;17.10;99.90;;;;;;5074960;28;20032;-37
2023/09/23 11:27:23;;;;;;;4.13;0.77;;;17.10;99.90;;;;;;5074990;28;20025;-39
2023/09/23 11:29:50;;;;;;;3.10;0.88;;;16.90;99.90;;;;;;5074991;28;20036;-39
2023/09/23 11:32:23;;;;;;;1.92;1.00;;;17.00;99.90;;;;;;5073648;28;20020;-39
2023/09/23 11:34:50;;;;;;;2.00;0.75;;;17.10;99.90;;;;;;5073657;28;20104;-40
2023/09/23 11:37:16;;;;;;;4.60;0.85;;;17.20;99.90;;;;;;5075084;28;20027;-40
2023/09/23 11:39:42;;;;;;;2.53;1.07;;;17.30;99.90;;;;;;5074849;28;20028;-39
2023/09/23 11:42:08;;;;;;;1.33;0.82;;;17.30;99.90;;;;;;5074644;28;20020;-39
2023/09/23 11:44:34;;;;;;;0.85;0.85;;;17.20;99.90;;;;;;5074867;28;20055;-46
2023/09/23 11:47:00;;;;;;;7.15;0.93;;;17.20;99.90;;;;;;5074644;28;20035;-39
2023/09/23 11:49:25;;;;;;;12.40;0.85;;;17.30;99.90;;;;;;5074342;28;20020;-38
2023/09/23 11:51:51;;;;;;;3.17;0.98;;;17.40;99.90;;;;;;5074785;28;20025;-38
2023/09/23 11:54:17;;;;;;;5.13;1.00;;;17.50;99.90;;;;;;5074378;28;20024;-37
2023/09/23 11:56:43;;;;;;;0.80;0.70;;;17.70;99.90;;;;;;5074431;28;20115;-39
2023/09/23 11:59:08;;;;;;;0.60;0.60;;;18.00;99.90;;;;;;5074201;28;20477;-53
2023/09/23 12:01:34;;;;;;;3.22;1.10;;;18.30;99.90;;;;;;5074315;28;20078;-51
2023/09/23 12:04:00;;;;;;;3.22;1.02;;;18.30;99.90;;;;;;5074248;28;20086;-53
2023/09/23 12:06:26;;;;;;;2.33;0.80;;;18.50;99.90;;;;;;5074262;28;20108;-52
2023/09/23 12:08:51;;;;;;;3.28;1.33;;;18.50;99.90;;;;;;5074207;28;20420;-52
2023/09/23 12:11:21;;;;;;;2.97;1.45;;;18.10;99.90;;;;;;5074012;28;20055;-52
2023/09/23 12:13:47;;;;;;;0.63;0.63;;;17.80;99.90;;;;;;5074004;28;20516;-51
2023/09/23 12:16:13;;;;;;;3.15;1.00;;;17.40;99.90;;;;;;5074203;28;20420;-51
2023/09/23 12:18:38;;;;;;;0.50;0.50;;;17.10;99.90;;;;;;5073975;28;20035;-37
2023/09/23 12:21:04;;;;;;;1.50;0.32;;;17.00;99.90;;;;;;5073939;28;20028;-37
2023/09/23 12:23:32;;;;;;;6.80;0.98;;;17.10;99.90;;;;;;5072629;28;20097;-39
2023/09/23 12:25:57;;;;;;;0.52;0.20;;;17.00;99.90;;;;;;5073851;28;20036;-37
2023/09/23 12:28:23;;;;;;;1.17;0.30;;;17.00;99.90;;;;;;5073797;28;20021;-38
2023/09/23 12:30:48;;;;;;;0.40;0.15;;;17.10;99.90;;;;;;5073988;28;20104;-38
2023/09/23 12:33:14;;;;;;;1.75;0.30;;;17.00;99.90;;;;;;5073981;28;20021;-38
2023/09/23 12:35:40;;;;;;;1.98;0.30;;;17.20;99.90;;;;;;5073659;28;20397;-41
2023/09/23 12:38:07;;;;;;;1.45;0.20;;;17.30;99.90;;;;;;5073618;28;20439;-41
2023/09/23 12:40:33;;;;;;;3.45;0.80;;;17.40;99.90;;;;;;5073762;28;20472;-37
2023/09/23 12:42:58;;;;;;;1.88;0.40;;;17.50;99.90;;;;;;5073466;28;20032;-37
2023/09/23 12:45:24;;;;;;;1.58;0.40;;;17.60;99.90;;;;;;5073503;28;20024;-38